Time;durP1;ratioP1;P1;durP2;ratioP2;P2;SDS_P1;SDS_P2;PMS_P1;PMS_P2;Temp;Humidity;BMP_temperature;BMP_pressure;BME280_temperature;BME280_humidity;BME280_pressure;Samples;Min_cycle;Max_cycle;Signal;HPM_P1;HPM_P2
2021/12/11 00:03:34;;;;;;;3.33;2.30;;;;;;;-146.19;100.00;65364.44;10535032;28;20051;-55
2021/12/11 00:08:57;;;;;;;2.53;2.10;;;;;;;-146.19;100.00;65364.44;10534700;28;20048;-55
2021/12/11 00:14:18;;;;;;;4.07;2.53;;;;;;;-146.19;100.00;65364.44;10534571;28;20056;-55
2021/12/11 00:19:39;;;;;;;3.38;2.42;;;;;;;-146.19;100.00;65364.44;10547225;28;20048;-55
2021/12/11 00:25:09;;;;;;;2.80;2.05;;;;;;;-146.19;100.00;65364.44;10539952;28;20113;-55
2021/12/11 00:30:33;;;;;;;3.95;2.30;;;;;;;-146.19;100.00;65364.44;10534474;28;20106;-55
2021/12/11 00:35:55;;;;;;;3.22;2.40;;;;;;;-146.19;100.00;65364.44;10510952;28;20044;-55
2021/12/11 00:41:20;;;;;;;2.55;2.20;;;;;;;-146.19;100.00;65364.44;10517689;28;20048;-55
2021/12/11 00:46:40;;;;;;;2.75;2.30;;;;;;;-146.19;100.00;65364.44;10514402;28;20769;-55
2021/12/11 00:52:00;;;;;;;2.33;1.95;;;;;;;-146.19;100.00;65364.44;10507967;28;20060;-55
2021/12/11 00:57:21;;;;;;;3.47;2.10;;;;;;;-146.19;100.00;65364.44;10496617;28;20063;-55
2021/12/11 01:02:41;;;;;;;2.60;2.10;;;;;;;-146.19;100.00;65364.44;10503445;28;20032;-56
2021/12/11 01:08:00;;;;;;;3.65;2.13;;;;;;;-146.19;100.00;65364.44;10485432;28;20388;-55
2021/12/11 01:13:25;;;;;;;2.45;2.10;;;;;;;-146.19;100.00;65364.44;10504081;28;20067;-55
2021/12/11 01:18:48;;;;;;;2.70;2.08;;;;;;;-146.19;100.00;65364.44;10504675;28;20052;-55
2021/12/11 01:24:16;;;;;;;2.13;1.92;;;;;;;-146.19;100.00;65364.44;10510982;28;20534;-55
2021/12/11 01:29:36;;;;;;;4.67;2.20;;;;;;;-146.19;100.00;65364.44;10516715;28;20040;-55
2021/12/11 01:34:57;;;;;;;2.58;2.10;;;;;;;-146.19;100.00;65364.44;10513947;28;20044;-55
2021/12/11 01:40:19;;;;;;;4.50;2.08;;;;;;;-146.19;100.00;65364.44;10510296;28;20040;-55
2021/12/11 01:45:50;;;;;;;2.60;1.80;;;;;;;-146.19;100.00;65364.44;10496730;28;20064;-55
2021/12/11 01:51:25;;;;;;;2.05;1.85;;;;;;;-146.19;100.00;65364.44;10494526;28;20078;-55
2021/12/11 01:56:54;;;;;;;2.25;1.88;;;;;;;-146.19;100.00;65364.44;10506871;28;20051;-55
2021/12/11 02:02:15;;;;;;;;;;;;;;;-146.19;100.00;65364.44;10505140;28;20131;-55
2021/12/11 02:07:43;;;;;;;2.45;2.10;;;;;;;-146.19;100.00;65364.44;10496498;28;19920;-55
2021/12/11 02:13:06;;;;;;;2.20;1.80;;;;;;;-146.19;100.00;65364.44;10513887;28;20047;-55
2021/12/11 02:18:34;;;;;;;2.55;1.88;;;;;;;-146.19;100.00;65364.44;10513440;28;20048;-55
2021/12/11 02:24:03;;;;;;;2.47;2.03;;;;;;;-146.19;100.00;65364.44;10538976;28;20044;-55
2021/12/11 02:29:25;;;;;;;3.10;2.00;;;;;;;-146.19;100.00;65364.44;10507910;28;20057;-55
2021/12/11 02:34:58;;;;;;;2.88;2.10;;;;;;;-146.19;100.00;65364.44;10491800;28;20060;-56
2021/12/11 02:40:36;;;;;;;2.08;1.90;;;;;;;-146.19;100.00;65364.44;10497037;28;20564;-55
2021/12/11 02:46:04;;;;;;;;;;;;;;;-146.19;100.00;65364.44;10506014;28;20113;-55
2021/12/11 02:51:38;;;;;;;1.83;1.73;;;;;;;-146.19;100.00;65364.44;10505761;28;20363;-56
2021/12/11 02:57:02;;;;;;;2.40;1.70;;;;;;;-146.19;100.00;65364.44;10515708;28;20062;-55
2021/12/11 03:02:26;;;;;;;3.17;1.90;;;;;;;-146.19;100.00;65364.44;10503614;28;20094;-54
2021/12/11 03:07:51;;;;;;;3.55;1.92;;;;;;;-146.19;100.00;65364.44;10494156;28;20106;-55
2021/12/11 03:13:11;;;;;;;1.75;1.65;;;;;;;-146.19;100.00;65364.44;10512435;28;20052;-55
2021/12/11 03:18:30;;;;;;;1.88;1.77;;;;;;;-146.19;100.00;65364.44;10521061;28;20625;-56
2021/12/11 03:23:52;;;;;;;1.92;1.70;;;;;;;-146.19;100.00;65364.44;10506208;28;20056;-55
2021/12/11 03:29:12;;;;;;;2.55;1.90;;;;;;;-146.19;100.00;65364.44;10507814;28;20044;-55
2021/12/11 03:34:32;;;;;;;1.70;1.60;;;;;;;-146.19;100.00;65364.44;10514040;28;20036;-55
2021/12/11 03:39:53;;;;;;;1.70;1.60;;;;;;;-146.19;100.00;65364.44;10501380;28;20120;-55
2021/12/11 03:45:17;;;;;;;1.85;1.70;;;;;;;-146.19;100.00;65364.44;10511009;28;20052;-55
2021/12/11 03:50:37;;;;;;;2.65;1.75;;;;;;;-146.19;100.00;65364.44;10516311;28;20671;-55
2021/12/11 03:56:03;;;;;;;2.15;1.60;;;;;;;-146.19;100.00;65364.44;10512267;28;20048;-55
2021/12/11 04:01:30;;;;;;;1.60;1.50;;;;;;;-146.19;100.00;65364.44;10509394;28;20055;-56
2021/12/11 04:06:52;;;;;;;1.77;1.60;;;;;;;-146.19;100.00;65364.44;10507202;28;20048;-55
2021/12/11 04:12:13;;;;;;;1.58;1.48;;;;;;;-146.19;100.00;65364.44;10488726;28;20086;-55
2021/12/11 04:17:32;;;;;;;1.65;1.55;;;;;;;-146.19;100.00;65364.44;10504746;28;20048;-55
2021/12/11 04:22:53;;;;;;;1.55;1.38;;;;;;;-146.19;100.00;65364.44;10491144;28;20570;-55
2021/12/11 04:28:16;;;;;;;1.70;1.60;;;;;;;-146.19;100.00;65364.44;10513375;28;20052;-56
2021/12/11 04:33:39;;;;;;;1.92;1.70;;;;;;;-146.19;100.00;65364.44;10510185;28;20415;-56
2021/12/11 04:38:59;;;;;;;2.13;1.92;;;;;;;-146.19;100.00;65364.44;10503371;28;20611;-56
2021/12/11 04:44:25;;;;;;;1.90;1.67;;;;;;;-146.19;100.00;65364.44;10505216;28;20052;-55
2021/12/11 04:49:52;;;;;;;1.70;1.60;;;;;;;-146.19;100.00;65364.44;10504527;28;20106;-55
2021/12/11 05:11:54;;;;;;;1.58;1.48;;;;;;;-146.19;100.00;65364.44;10498558;28;20046;-55
2021/12/11 05:17:14;;;;;;;1.65;1.30;;;;;;;-146.19;100.00;65364.44;10499960;28;20055;-55
2021/12/11 05:22:34;;;;;;;1.52;1.42;;;;;;;-146.19;100.00;65364.44;10517497;28;20055;-55
2021/12/11 05:27:54;;;;;;;1.40;1.30;;;;;;;-146.19;100.00;65364.44;10503026;28;20138;-56
2021/12/11 05:33:15;;;;;;;2.30;1.60;;;;;;;-146.19;100.00;65364.44;10489145;28;20395;-55
2021/12/11 05:38:39;;;;;;;1.85;1.50;;;;;;;-146.19;100.00;65364.44;10496189;28;20584;-55
2021/12/11 05:43:58;;;;;;;1.50;1.40;;;;;;;-146.19;100.00;65364.44;10502483;28;20111;-55
2021/12/11 05:49:18;;;;;;;1.60;1.50;;;;;;;-146.19;100.00;65364.44;10504322;28;20078;-56
2021/12/11 05:54:40;;;;;;;1.50;1.40;;;;;;;-146.19;100.00;65364.44;10494248;28;20575;-55
2021/12/11 05:59:59;;;;;;;2.47;1.35;;;;;;;-146.19;100.00;65364.44;10518902;28;20102;-54
2021/12/11 06:05:19;;;;;;;2.10;1.48;;;;;;;-146.19;100.00;65364.44;10502018;28;20052;-54
2021/12/11 06:10:41;;;;;;;1.50;1.40;;;;;;;-146.19;100.00;65364.44;10513559;28;20491;-54
2021/12/11 06:16:02;;;;;;;1.50;1.40;;;;;;;-146.19;100.00;65364.44;10488726;28;20534;-55
2021/12/11 06:21:22;;;;;;;1.52;1.42;;;;;;;-146.19;100.00;65364.44;10508587;28;20626;-55
2021/12/11 06:26:42;;;;;;;1.65;1.55;;;;;;;-146.19;100.00;65364.44;10503662;28;20101;-54
2021/12/11 06:32:03;;;;;;;1.85;1.67;;;;;;;-146.19;100.00;65364.44;10509362;28;20060;-54
2021/12/11 06:37:22;;;;;;;1.80;1.30;;;;;;;-146.19;100.00;65364.44;10510076;28;20055;-55
2021/12/11 06:42:42;;;;;;;1.48;1.38;;;;;;;-146.19;100.00;65364.44;10508957;28;20052;-55
2021/12/11 06:48:02;;;;;;;1.40;1.30;;;;;;;-146.19;100.00;65364.44;10510267;28;20053;-55
2021/12/11 06:53:27;;;;;;;2.60;1.70;;;;;;;-146.19;100.00;65364.44;10518890;28;20041;-56
2021/12/11 06:58:48;;;;;;;1.45;1.35;;;;;;;-146.19;100.00;65364.44;10511521;28;20047;-55
2021/12/11 07:04:09;;;;;;;1.65;1.40;;;;;;;-146.19;100.00;65364.44;10526954;28;20051;-55
2021/12/11 07:09:30;;;;;;;1.65;1.13;;;;;;;-146.19;100.00;65364.44;10505614;28;20041;-56
2021/12/11 07:14:51;;;;;;;1.60;1.50;;;;;;;-146.19;100.00;65364.44;10518692;28;20139;-56
2021/12/11 07:20:14;;;;;;;1.50;1.40;;;;;;;-146.19;100.00;65364.44;10503832;28;20078;-55
2021/12/11 07:25:41;;;;;;;2.85;1.50;;;;;;;-146.19;100.00;65364.44;10513150;28;20419;-55
2021/12/11 07:31:01;;;;;;;4.35;1.42;;;;;;;-146.19;100.00;65364.44;10506754;28;20518;-56
2021/12/11 07:36:22;;;;;;;1.42;1.30;;;;;;;-146.19;100.00;65364.44;10506358;28;20059;-56
2021/12/11 07:41:42;;;;;;;2.55;1.42;;;;;;;-146.19;100.00;65364.44;10518855;28;20685;-55
2021/12/11 07:47:03;;;;;;;1.30;1.20;;;;;;;-146.19;100.00;65364.44;10501353;28;20052;-56
2021/12/11 07:52:23;;;;;;;1.48;1.38;;;;;;;-146.19;100.00;65364.44;10513969;28;20687;-55
2021/12/11 07:57:44;;;;;;;1.55;1.30;;;;;;;-146.19;100.00;65364.44;10503478;28;20563;-55
2021/12/11 08:03:05;;;;;;;1.58;1.40;;;;;;;-146.19;100.00;65364.44;10513732;28;20663;-55
2021/12/11 08:08:25;;;;;;;1.83;1.30;;;;;;;-146.19;100.00;65364.44;10500111;28;20063;-55
2021/12/11 08:13:48;;;;;;;1.52;1.40;;;;;;;-146.19;100.00;65364.44;10503897;28;20047;-55
2021/12/11 08:19:07;;;;;;;1.33;1.23;;;;;;;-146.19;100.00;65364.44;10488603;28;20053;-55
2021/12/11 08:24:28;;;;;;;1.50;1.40;;;;;;;-146.19;100.00;65364.44;10506991;28;20048;-55
2021/12/11 08:29:50;;;;;;;1.58;1.48;;;;;;;-146.19;100.00;65364.44;10487437;28;20052;-55
2021/12/11 08:35:11;;;;;;;1.40;1.30;;;;;;;-146.19;100.00;65364.44;10501779;28;20059;-55
2021/12/11 08:40:39;;;;;;;1.65;1.30;;;;;;;-146.19;100.00;65364.44;10518875;28;20043;-56
2021/12/11 08:46:15;;;;;;;1.50;1.40;;;;;;;-146.19;100.00;65364.44;10492366;28;20127;-55
2021/12/11 08:51:39;;;;;;;1.80;1.70;;;;;;;-146.19;100.00;65364.44;10513943;28;20052;-55
2021/12/11 08:57:00;;;;;;;1.90;1.60;;;;;;;-146.19;100.00;65364.44;10524583;28;20058;-56
2021/12/11 09:02:29;;;;;;;1.55;1.30;;;;;;;-146.19;100.00;65364.44;10519034;28;20044;-54
2021/12/11 09:07:56;;;;;;;2.03;1.42;;;;;;;-146.19;100.00;65364.44;10513186;28;20043;-54
2021/12/11 09:13:49;;;;;;;1.63;1.50;;;;;;;-146.19;100.00;65364.44;10519877;28;20052;-56
2021/12/11 09:19:14;;;;;;;2.20;1.42;;;;;;;-146.19;100.00;65364.44;10526500;28;20070;-56
2021/12/11 09:24:47;;;;;;;2.13;1.60;;;;;;;-146.19;100.00;65364.44;10529742;28;20047;-55
2021/12/11 09:30:13;;;;;;;2.33;1.38;;;;;;;-146.19;100.00;65364.44;10525461;28;20093;-55
2021/12/11 09:35:55;;;;;;;1.55;1.45;;;;;;;-146.19;100.00;65364.44;10535089;28;20047;-56
2021/12/11 09:41:24;;;;;;;3.88;2.45;;;;;;;-146.19;100.00;65364.44;10524559;28;20068;-56
2021/12/11 09:46:50;;;;;;;3.70;2.45;;;;;;;-146.19;100.00;65364.44;10514308;28;20052;-56
2021/12/11 09:52:23;;;;;;;9.20;8.30;;;;;;;-146.19;100.00;65364.44;10522563;28;20082;-55
2021/12/11 09:57:46;;;;;;;3.47;3.17;;;;;;;-146.19;100.00;65364.44;10520774;28;20478;-56
2021/12/11 10:03:08;;;;;;;5.35;3.25;;;;;;;-146.19;100.00;65364.44;10532363;28;20077;-56
2021/12/11 10:08:39;;;;;;;7.38;5.95;;;;;;;-146.19;100.00;65364.44;10517975;28;20098;-56
2021/12/11 10:14:10;;;;;;;5.05;4.55;;;;;;;-146.19;100.00;65364.44;10527906;28;20052;-55
2021/12/11 10:19:30;;;;;;;16.42;14.77;;;;;;;19.85;27.84;96319.03;10513124;28;20391;-54
2021/12/11 10:24:51;;;;;;;17.20;14.93;;;;;;;18.73;30.46;96327.13;10523864;28;20067;-56
2021/12/11 10:30:17;;;;;;;14.02;12.60;;;;;;;19.60;30.47;96342.53;10508503;28;20044;-56
2021/12/11 10:35:41;;;;;;;13.60;12.20;;;;;;;19.60;30.47;96342.53;10501217;28;20535;-56
2021/12/11 10:41:02;;;;;;;8.02;7.18;;;;;;;-146.19;100.00;65364.44;10572489;28;20040;-56
2021/12/11 10:46:27;;;;;;;7.97;7.18;;;;;;;-146.19;100.00;65364.44;10516418;28;20056;-56
2021/12/11 10:51:52;;;;;;;7.20;6.50;;;;;;;-146.19;100.00;65364.44;10559631;28;20097;-56
2021/12/11 10:57:11;;;;;;;8.43;6.18;;;;;;;-146.19;100.00;65364.44;10535955;28;20060;-56
2021/12/11 11:02:32;;;;;;;15.80;14.10;;;;;;;20.50;31.85;96359.69;10509831;28;20074;-55
2021/12/11 11:07:52;;;;;;;11.95;10.73;;;;;;;-146.19;100.00;65364.44;10575033;28;20040;-56
2021/12/11 11:13:14;;;;;;;13.70;12.02;;;;;;;20.31;31.27;96373.00;10512647;28;20442;-56
2021/12/11 11:18:34;;;;;;;9.07;7.22;;;;;;;-146.19;100.00;65364.44;10504442;28;20106;-56
2021/12/11 11:23:54;;;;;;;9.13;7.80;;;;;;;-146.19;100.00;65364.44;10503452;28;20060;-56
2021/12/11 11:29:22;;;;;;;7.85;7.05;;;;;;;-146.19;100.00;65364.44;10494676;28;20048;-56
2021/12/11 11:34:43;;;;;;;8.15;7.00;;;;;;;-146.19;100.00;65364.44;10495088;28;20105;-56
2021/12/11 11:40:06;;;;;;;7.63;5.82;;;;;;;-146.19;100.00;65364.44;10508213;28;20075;-56
2021/12/11 11:45:27;;;;;;;6.68;5.97;;;;;;;-146.19;100.00;65364.44;10494563;28;20496;-56
2021/12/11 11:50:48;;;;;;;6.80;6.10;;;;;;;-146.19;100.00;65364.44;10494217;28;20048;-56
2021/12/11 11:56:11;;;;;;;6.60;5.90;;;;;;;-146.19;100.00;65364.44;10494202;28;20412;-55
2021/12/11 12:01:40;;;;;;;6.05;5.45;;;;;;;-146.19;100.00;65364.44;10493486;28;20040;-56
2021/12/11 12:07:02;;;;;;;5.95;5.40;;;;;;;-146.19;100.00;65364.44;10493807;28;20499;-56
2021/12/11 12:12:22;;;;;;;6.25;5.45;;;;;;;-146.19;100.00;65364.44;10498814;28;20045;-56
2021/12/11 12:17:42;;;;;;;5.65;5.15;;;;;;;-146.19;100.00;65364.44;10492020;28;20459;-56
2021/12/11 12:23:03;;;;;;;6.28;5.13;;;;;;;-146.19;100.00;65364.44;10492827;28;20404;-55
2021/12/11 12:28:22;;;;;;;7.03;5.72;;;;;;;-146.19;100.00;65364.44;10492760;28;20075;-56
2021/12/11 12:33:44;;;;;;;5.40;4.97;;;;;;;-146.19;100.00;65364.44;10506112;28;20388;-56
2021/12/11 12:39:05;;;;;;;5.30;4.80;;;;;;;-146.19;100.00;65364.44;10492800;28;20057;-56
2021/12/11 12:44:26;;;;;;;5.55;5.05;;;;;;;-146.19;100.00;65364.44;10505491;28;20048;-56
2021/12/11 12:49:48;;;;;;;5.13;4.63;;;;;;;-146.19;100.00;65364.44;10505347;28;20102;-55
2021/12/11 12:55:16;;;;;;;5.93;5.30;;;;;;;-146.19;100.00;65364.44;10505035;28;20052;-56
2021/12/11 13:00:43;;;;;;;5.43;4.90;;;;;;;-146.19;100.00;65364.44;10491434;28;20049;-55
2021/12/11 13:06:09;;;;;;;7.93;7.13;;;;;;;-146.19;100.00;65364.44;10496193;28;20749;-56
2021/12/11 13:11:33;;;;;;;6.20;5.25;;;;;;;-146.19;100.00;65364.44;10513268;28;20036;-56
2021/12/11 13:16:58;;;;;;;7.03;6.10;;;;;;;-146.19;100.00;65364.44;10520959;28;20053;-56
2021/12/11 13:22:22;;;;;;;6.20;5.57;;;;;;;-146.19;100.00;65364.44;10537537;28;20051;-56
2021/12/11 13:27:42;;;;;;;5.80;5.20;;;;;;;-146.19;100.00;65364.44;10489819;28;20056;-55
2021/12/11 13:33:05;;;;;;;5.65;4.90;;;;;;;-146.19;100.00;65364.44;10503576;28;20048;-55
2021/12/11 13:38:27;;;;;;;5.82;5.22;;;;;;;-146.19;100.00;65364.44;10489509;28;20052;-56
2021/12/11 13:43:47;;;;;;;6.18;5.03;;;;;;;-146.19;100.00;65364.44;10502069;28;20396;-55
2021/12/11 13:49:07;;;;;;;7.65;5.57;;;;;;;-146.19;100.00;65364.44;10517023;28;20055;-55
2021/12/11 13:54:27;;;;;;;7.85;5.22;;;;;;;-146.19;100.00;65364.44;10536923;28;20052;-56
2021/12/11 13:59:46;;;;;;;6.65;5.10;;;;;;;-146.19;100.00;65364.44;10537480;28;20105;-56
2021/12/11 14:05:06;;;;;;;6.88;5.20;;;;;;;-146.19;100.00;65364.44;10511414;28;20052;-55
2021/12/11 14:10:36;;;;;;;10.18;5.50;;;;;;;-146.19;100.00;65364.44;10505339;28;20051;-56
2021/12/11 14:15:57;;;;;;;9.23;5.80;;;;;;;-146.19;100.00;65364.44;10516440;28;20048;-55
2021/12/11 14:21:17;;;;;;;9.48;5.40;;;;;;;-146.19;100.00;65364.44;10495839;28;20049;-55
2021/12/11 14:26:43;;;;;;;8.27;5.57;;;;;;;-146.19;100.00;65364.44;10474755;28;20082;-55
2021/12/11 14:32:03;;;;;;;9.13;5.43;;;;;;;-146.19;100.00;65364.44;10499314;28;20660;-55
2021/12/11 14:37:23;;;;;;;10.65;5.80;;;;;;;-146.19;100.00;65364.44;10505068;28;20040;-56
2021/12/11 14:42:46;;;;;;;9.95;6.20;;;;;;;-146.19;100.00;65364.44;10507677;28;20636;-55
2021/12/11 14:48:06;;;;;;;11.00;6.22;;;;;;;-146.19;100.00;65364.44;10504876;28;20055;-55
2021/12/11 14:53:33;;;;;;;9.43;5.80;;;;;;;-146.19;100.00;65364.44;10509616;28;20048;-55
2021/12/11 14:58:55;;;;;;;8.68;5.30;;;;;;;-146.19;100.00;65364.44;10555248;28;20483;-55
2021/12/11 15:04:21;;;;;;;8.73;5.38;;;;;;;-146.19;100.00;65364.44;10527349;28;20051;-56
2021/12/11 15:09:42;;;;;;;11.30;5.32;;;;;;;-146.19;100.00;65364.44;10529573;28;20499;-56
2021/12/11 15:15:04;;;;;;;8.40;5.53;;;;;;;-146.19;100.00;65364.44;10541989;28;20032;-55
2021/12/11 15:20:28;;;;;;;9.75;5.60;;;;;;;-146.19;100.00;65364.44;10534976;28;20069;-55
2021/12/11 15:26:08;;;;;;;11.65;6.07;;;;;;;-146.19;100.00;65364.44;10462602;28;20056;-56
2021/12/11 15:31:32;;;;;;;9.23;5.72;;;;;;;-146.19;100.00;65364.44;10447467;28;20071;-55
2021/12/11 15:36:52;;;;;;;8.23;5.20;;;;;;;-146.19;100.00;65364.44;10460344;28;20075;-55
2021/12/11 15:42:11;;;;;;;8.85;5.35;;;;;;;-146.19;100.00;65364.44;10460775;28;20041;-56
2021/12/11 15:47:32;;;;;;;7.93;5.30;;;;;;;-146.19;100.00;65364.44;10446646;28;20053;-56
2021/12/11 15:52:52;;;;;;;6.72;4.70;;;;;;;-146.19;100.00;65364.44;10440770;28;20057;-56
2021/12/11 15:58:11;;;;;;;6.95;4.55;;;;;;;-146.19;100.00;65364.44;10527822;28;20048;-56
2021/12/11 16:03:31;;;;;;;8.27;4.85;;;;;;;-146.19;100.00;65364.44;10579602;28;20047;-55
2021/12/11 16:08:53;;;;;;;7.85;4.57;;;;;;;-146.19;100.00;65364.44;10577193;28;20639;-55
2021/12/11 16:14:15;;;;;;;5.88;4.20;;;;;;;-146.19;100.00;65364.44;10471283;28;20506;-56
2021/12/11 16:19:38;;;;;;;6.55;4.50;;;;;;;-146.19;100.00;65364.44;10524160;28;20415;-56
2021/12/11 16:25:05;;;;;;;7.25;4.57;;;;;;;-146.19;100.00;65364.44;10511108;28;20097;-55
2021/12/11 16:30:27;;;;;;;6.53;4.30;;;;;;;-146.19;100.00;65364.44;10513026;28;20094;-56
2021/12/11 16:35:48;;;;;;;7.25;4.40;;;;;;;-146.19;100.00;65364.44;10497782;28;20056;-55
2021/12/11 16:41:20;;;;;;;7.07;4.35;;;;;;;-146.19;100.00;65364.44;10512831;28;20047;-56
2021/12/11 16:46:44;;;;;;;7.70;4.63;;;;;;;-146.19;100.00;65364.44;10493170;28;20059;-56
2021/12/11 16:52:08;;;;;;;5.47;4.10;;;;;;;-146.19;100.00;65364.44;10502814;28;20040;-55
2021/12/11 16:57:28;;;;;;;6.93;4.63;;;;;;;-146.19;100.00;65364.44;10499424;28;20052;-55
2021/12/11 17:02:48;;;;;;;6.10;4.03;;;;;;;-146.19;100.00;65364.44;10505945;28;20539;-56
2021/12/11 17:08:07;;;;;;;5.78;3.90;;;;;;;-146.19;100.00;65364.44;10500367;28;20048;-56
2021/12/11 17:13:30;;;;;;;6.07;4.10;;;;;;;-146.19;100.00;65364.44;10501199;28;20087;-56
2021/12/11 17:18:49;;;;;;;5.75;4.28;;;;;;;-146.19;100.00;65364.44;10503390;28;20052;-56
2021/12/11 17:24:11;;;;;;;6.15;4.15;;;;;;;-146.19;100.00;65364.44;10503536;28;20542;-56
2021/12/11 17:29:31;;;;;;;5.43;3.90;;;;;;;-146.19;100.00;65364.44;10511824;28;20416;-56
2021/12/11 17:34:50;;;;;;;5.75;3.58;;;;;;;-146.19;100.00;65364.44;10510833;28;20581;-55
2021/12/11 17:40:13;;;;;;;5.70;3.92;;;;;;;-146.19;100.00;65364.44;10512415;28;20464;-55
2021/12/11 17:45:34;;;;;;;6.47;4.07;;;;;;;-146.19;100.00;65364.44;10530810;28;20112;-55
2021/12/11 17:50:57;;;;;;;6.00;3.75;;;;;;;-146.19;100.00;65364.44;10531139;28;20048;-55
2021/12/11 17:56:17;;;;;;;4.97;3.85;;;;;;;-146.19;100.00;65364.44;10508914;28;20207;-56
2021/12/11 18:01:50;;;;;;;5.20;4.03;;;;;;;-146.19;100.00;65364.44;10522717;28;20041;-56
2021/12/11 18:07:14;;;;;;;5.97;3.90;;;;;;;-146.19;100.00;65364.44;10502884;28;20514;-56
2021/12/11 18:12:39;;;;;;;5.95;3.72;;;;;;;-146.19;100.00;65364.44;10529883;28;20064;-55
2021/12/11 18:18:16;;;;;;;5.45;3.72;;;;;;;-146.19;100.00;65364.44;10538245;28;20054;-56
2021/12/11 18:23:37;;;;;;;5.63;4.03;;;;;;;-146.19;100.00;65364.44;10539214;28;20052;-55
2021/12/11 18:28:56;;;;;;;4.40;3.58;;;;;;;-146.19;100.00;65364.44;10530857;28;20081;-55
2021/12/11 18:34:17;;;;;;;5.78;3.70;;;;;;;-146.19;100.00;65364.44;10529477;28;20069;-56
2021/12/11 18:39:40;;;;;;;5.28;3.70;;;;;;;-146.19;100.00;65364.44;10529318;28;20052;-55
2021/12/11 18:45:03;;;;;;;4.55;3.42;;;;;;;-146.19;100.00;65364.44;10536328;28;20044;-55
2021/12/11 18:50:24;;;;;;;5.15;3.65;;;;;;;-146.19;100.00;65364.44;10514083;28;20056;-55
2021/12/11 18:55:49;;;;;;;4.80;3.60;;;;;;;-146.19;100.00;65364.44;10510883;28;20032;-56
2021/12/11 19:01:19;;;;;;;4.53;3.50;;;;;;;-146.19;100.00;65364.44;10515419;28;20047;-55
2021/12/11 19:06:39;;;;;;;4.65;3.80;;;;;;;-146.19;100.00;65364.44;10488090;28;20087;-56
2021/12/11 19:12:03;;;;;;;4.90;3.25;;;;;;;-146.19;100.00;65364.44;10540106;28;20117;-56
2021/12/11 19:17:23;;;;;;;4.88;3.70;;;;;;;-146.19;100.00;65364.44;10534317;28;20069;-55
2021/12/11 19:22:42;;;;;;;5.15;3.42;;;;;;;20.31;31.27;96373.00;10534417;28;20060;-56
2021/12/11 19:28:05;;;;;;;4.45;3.55;;;;;;;19.51;44.79;97126.19;10520100;28;20036;-55
2021/12/11 19:33:28;;;;;;;4.07;3.05;;;;;;;19.51;44.81;97139.69;10501391;28;20098;-56
2021/12/11 19:38:49;;;;;;;4.03;3.53;;;;;;;19.49;44.83;97152.72;10512366;28;20569;-56
2021/12/11 19:44:09;;;;;;;4.43;3.38;;;;;;;19.47;44.80;97157.63;10499353;28;20056;-55
2021/12/11 19:49:31;;;;;;;3.50;3.10;;;;;;;19.46;44.70;97166.84;10522958;28;20436;-55
2021/12/11 19:54:54;;;;;;;4.20;3.45;;;;;;;19.44;44.83;97177.16;10493496;28;20057;-56
2021/12/11 20:00:23;;;;;;;3.90;3.10;;;;;;;19.43;44.62;97183.69;10512067;28;20055;-56
2021/12/11 20:05:46;;;;;;;;;;;;;;;19.42;44.84;97198.31;10530150;28;20047;-55
2021/12/11 20:11:14;;;;;;;4.75;3.20;;;;;;;19.40;44.65;97205.13;10531649;28;19927;-55
2021/12/11 20:16:34;;;;;;;3.77;2.97;;;;;;;19.39;44.56;97217.84;10545964;28;20584;-55
2021/12/11 20:21:59;;;;;;;3.92;3.22;;;;;;;19.36;44.71;97223.88;10528412;28;20476;-56
2021/12/11 20:27:23;;;;;;;3.72;3.30;;;;;;;19.36;44.63;97229.28;10532446;28;20627;-56
2021/12/11 20:32:43;;;;;;;4.00;3.10;;;;;;;19.35;44.64;97235.81;10539338;28;20380;-56
2021/12/11 20:38:04;;;;;;;3.63;3.15;;;;;;;19.33;44.53;97241.50;10519946;28;20044;-56
2021/12/11 20:43:25;;;;;;;3.42;3.08;;;;;;;19.32;44.60;97242.59;10513654;28;20059;-56
2021/12/11 20:48:45;;;;;;;3.28;2.70;;;;;;;19.31;44.60;97249.13;10540565;28;20467;-56
2021/12/11 20:54:10;;;;;;;3.42;2.95;;;;;;;19.30;44.64;97261.03;10514510;28;20078;-56
2021/12/11 20:59:29;;;;;;;3.40;3.03;;;;;;;19.28;44.61;97276.75;10512589;28;20553;-56
2021/12/11 21:04:56;;;;;;;3.67;2.88;;;;;;;19.27;44.56;97277.09;10543016;28;20105;-55
2021/12/11 21:10:25;;;;;;;3.78;3.10;;;;;;;19.25;44.48;97290.09;10543492;28;20678;-56
2021/12/11 21:16:06;;;;;;;3.42;2.60;;;;;;;19.25;44.35;97287.38;10525063;28;20059;-56
2021/12/11 21:21:40;;;;;;;3.10;2.80;;;;;;;19.23;44.27;97301.22;10498049;28;20052;-55
2021/12/11 21:27:14;;;;;;;3.28;2.97;;;;;;;19.21;44.37;97303.44;10502474;28;20723;-56
2021/12/11 21:32:34;;;;;;;3.17;2.60;;;;;;;19.20;44.24;97306.44;10498722;28;20037;-55
2021/12/11 21:37:54;;;;;;;3.40;2.75;;;;;;;19.19;44.44;97318.34;10486086;28;20055;-56
2021/12/11 21:43:19;;;;;;;3.55;3.03;;;;;;;19.18;44.41;97322.94;10498026;28;20060;-56
2021/12/11 21:48:45;;;;;;;2.88;2.55;;;;;;;19.16;44.47;97334.06;10499462;28;20044;-55
2021/12/11 21:54:14;;;;;;;3.15;2.60;;;;;;;19.16;44.40;97333.25;10494205;28;20056;-56
2021/12/11 21:59:41;;;;;;;3.67;3.00;;;;;;;19.16;44.38;97344.06;10510814;28;20051;-56
2021/12/11 22:05:08;;;;;;;2.88;2.53;;;;;;;19.13;44.29;97356.28;10502571;28;20085;-55
2021/12/11 22:10:33;;;;;;;3.20;2.88;;;;;;;19.13;44.21;97366.28;10501065;28;20392;-56
2021/12/11 22:15:59;;;;;;;3.40;2.63;;;;;;;19.11;44.23;97376.59;10500981;28;20455;-56
2021/12/11 22:21:23;;;;;;;2.70;2.25;;;;;;;19.10;44.25;97388.50;10498331;28;20048;-56
2021/12/11 22:26:47;;;;;;;3.13;2.40;;;;;;;19.07;44.18;97381.81;10500957;28;20079;-56
2021/12/11 22:32:10;;;;;;;3.13;2.70;;;;;;;19.06;44.30;97391.00;10485792;28;20063;-55
2021/12/11 22:37:33;;;;;;;2.72;2.40;;;;;;;19.05;44.33;97394.84;10493431;28;20396;-56
2021/12/11 22:42:54;;;;;;;2.78;2.38;;;;;;;19.04;44.39;97398.63;10495138;28;20059;-56
2021/12/11 22:48:18;;;;;;;2.60;2.40;;;;;;;19.02;44.19;97395.44;10538442;28;20051;-55
2021/12/11 22:53:52;;;;;;;2.55;2.35;;;;;;;19.02;44.23;97400.84;10542254;28;20096;-55
2021/12/11 22:59:18;;;;;;;2.83;2.53;;;;;;;19.00;44.22;97394.94;10527351;28;20044;-55
2021/12/11 23:04:44;;;;;;;3.15;2.45;;;;;;;18.98;44.21;97391.75;10545150;28;20040;-56
2021/12/11 23:10:28;;;;;;;2.90;2.60;;;;;;;18.97;44.25;97398.25;10545985;28;20512;-56
2021/12/11 23:16:07;;;;;;;2.75;2.50;;;;;;;18.95;44.11;97393.16;10535841;28;20032;-56
2021/12/11 23:21:42;;;;;;;2.35;2.15;;;;;;;18.94;44.19;97390.78;10531462;28;20044;-56
2021/12/11 23:27:08;;;;;;;3.00;2.45;;;;;;;18.94;44.03;97396.16;10534371;28;20040;-55
2021/12/11 23:32:36;;;;;;;3.63;2.60;;;;;;;18.91;44.07;97400.25;10548077;28;20044;-56
2021/12/11 23:38:03;;;;;;;2.47;2.15;;;;;;;18.91;44.00;97402.16;10526501;28;20063;-55
2021/12/11 23:43:36;;;;;;;3.17;2.45;;;;;;;18.89;44.16;97398.97;10518804;28;20051;-56
2021/12/11 23:48:59;;;;;;;2.60;2.40;;;;;;;18.88;44.08;97395.47;10547354;28;20039;-56
2021/12/11 23:54:23;;;;;;;2.83;2.28;;;;;;;18.87;44.08;97390.38;10517922;28;20056;-56
2021/12/11 23:59:54;;;;;;;2.50;2.30;;;;;;;18.85;43.88;97385.28;10533378;28;20044;-56
